sensor_id;sensor_type;location;lat;lon;timestamp;temperature;humidity
28552;DHT22;15752;49.560;8.708;2023-05-23T00:01:42;21.20;99.50
28552;DHT22;15752;49.560;8.708;2023-05-23T00:04:11;21.20;98.90
28552;DHT22;15752;49.560;8.708;2023-05-23T00:06:43;21.20;99.30
28552;DHT22;15752;49.560;8.708;2023-05-23T00:09:13;21.10;99.50
28552;DHT22;15752;49.560;8.708;2023-05-23T00:11:42;21.10;99.00
28552;DHT22;15752;49.560;8.708;2023-05-23T00:14:11;21.10;99.20
28552;DHT22;15752;49.560;8.708;2023-05-23T00:16:42;21.10;99.20
28552;DHT22;15752;49.560;8.708;2023-05-23T00:19:11;21.10;99.60
28552;DHT22;15752;49.560;8.708;2023-05-23T00:21:42;21.00;99.40
28552;DHT22;15752;49.560;8.708;2023-05-23T00:24:14;21.00;99.50
28552;DHT22;15752;49.560;8.708;2023-05-23T00:26:44;21.00;99.20
28552;DHT22;15752;49.560;8.708;2023-05-23T00:29:15;21.00;99.40
28552;DHT22;15752;49.560;8.708;2023-05-23T00:31:44;21.00;99.60
28552;DHT22;15752;49.560;8.708;2023-05-23T00:34:13;20.90;99.60
28552;DHT22;15752;49.560;8.708;2023-05-23T00:36:44;20.90;99.50
28552;DHT22;15752;49.560;8.708;2023-05-23T00:39:14;20.90;99.70
28552;DHT22;15752;49.560;8.708;2023-05-23T00:41:48;20.90;99.80
28552;DHT22;15752;49.560;8.708;2023-05-23T00:44:45;20.80;99.90
28552;DHT22;15752;49.560;8.708;2023-05-23T00:47:14;20.80;99.90
28552;DHT22;15752;49.560;8.708;2023-05-23T00:49:43;20.80;99.90
28552;DHT22;15752;49.560;8.708;2023-05-23T00:52:13;20.80;99.80
28552;DHT22;15752;49.560;8.708;2023-05-23T00:54:41;20.70;99.70
28552;DHT22;15752;49.560;8.708;2023-05-23T00:57:10;20.70;99.70
28552;DHT22;15752;49.560;8.708;2023-05-23T00:59:38;20.70;99.70
28552;DHT22;15752;49.560;8.708;2023-05-23T01:02:08;20.70;99.60
28552;DHT22;15752;49.560;8.708;2023-05-23T01:04:39;20.70;99.50
28552;DHT22;15752;49.560;8.708;2023-05-23T01:07:08;20.60;99.70
28552;DHT22;15752;49.560;8.708;2023-05-23T01:09:38;20.60;99.70
28552;DHT22;15752;49.560;8.708;2023-05-23T01:12:16;20.60;99.60
28552;DHT22;15752;49.560;8.708;2023-05-23T01:15:04;20.60;99.70
28552;DHT22;15752;49.560;8.708;2023-05-23T01:17:43;20.60;99.70
28552;DHT22;15752;49.560;8.708;2023-05-23T01:20:17;20.60;99.90
28552;DHT22;15752;49.560;8.708;2023-05-23T01:26:26;20.50;99.70
28552;DHT22;15752;49.560;8.708;2023-05-23T01:29:10;20.50;99.80
28552;DHT22;15752;49.560;8.708;2023-05-23T01:31:43;20.50;99.80
28552;DHT22;15752;49.560;8.708;2023-05-23T01:34:13;20.50;99.60
28552;DHT22;15752;49.560;8.708;2023-05-23T01:36:43;20.50;99.70
28552;DHT22;15752;49.560;8.708;2023-05-23T01:39:12;20.40;99.60
28552;DHT22;15752;49.560;8.708;2023-05-23T01:41:41;20.40;99.70
28552;DHT22;15752;49.560;8.708;2023-05-23T01:44:11;20.40;99.80
28552;DHT22;15752;49.560;8.708;2023-05-23T01:46:40;20.40;99.80
28552;DHT22;15752;49.560;8.708;2023-05-23T01:49:12;20.40;99.80
28552;DHT22;15752;49.560;8.708;2023-05-23T01:51:41;20.30;99.90
28552;DHT22;15752;49.560;8.708;2023-05-23T01:54:11;20.30;99.90
28552;DHT22;15752;49.560;8.708;2023-05-23T01:56:43;20.30;99.90
28552;DHT22;15752;49.560;8.708;2023-05-23T01:59:13;20.30;99.90
28552;DHT22;15752;49.560;8.708;2023-05-23T02:01:42;20.20;99.70
28552;DHT22;15752;49.560;8.708;2023-05-23T02:04:12;20.30;99.90
28552;DHT22;15752;49.560;8.708;2023-05-23T02:06:41;20.20;99.80
28552;DHT22;15752;49.560;8.708;2023-05-23T02:09:12;20.20;99.90
28552;DHT22;15752;49.560;8.708;2023-05-23T02:11:40;20.20;99.80
28552;DHT22;15752;49.560;8.708;2023-05-23T02:14:10;20.20;99.90
28552;DHT22;15752;49.560;8.708;2023-05-23T02:16:40;20.20;99.80
28552;DHT22;15752;49.560;8.708;2023-05-23T02:19:08;20.00;99.60
28552;DHT22;15752;49.560;8.708;2023-05-23T02:21:38;20.20;99.90
28552;DHT22;15752;49.560;8.708;2023-05-23T02:24:06;20.10;99.80
28552;DHT22;15752;49.560;8.708;2023-05-23T02:26:34;20.10;99.90
28552;DHT22;15752;49.560;8.708;2023-05-23T02:29:03;20.10;99.90
28552;DHT22;15752;49.560;8.708;2023-05-23T02:31:31;20.10;99.90
28552;DHT22;15752;49.560;8.708;2023-05-23T02:34:01;20.10;99.90
28552;DHT22;15752;49.560;8.708;2023-05-23T02:36:30;20.10;99.90
28552;DHT22;15752;49.560;8.708;2023-05-23T02:38:59;20.00;99.90
28552;DHT22;15752;49.560;8.708;2023-05-23T02:41:28;20.00;99.90
28552;DHT22;15752;49.560;8.708;2023-05-23T02:43:57;20.00;99.90
28552;DHT22;15752;49.560;8.708;2023-05-23T02:46:26;20.00;99.90
28552;DHT22;15752;49.560;8.708;2023-05-23T02:48:55;20.00;99.90
28552;DHT22;15752;49.560;8.708;2023-05-23T02:51:24;19.90;99.90
28552;DHT22;15752;49.560;8.708;2023-05-23T02:53:53;19.90;99.90
28552;DHT22;15752;49.560;8.708;2023-05-23T02:56:21;19.90;99.90
28552;DHT22;15752;49.560;8.708;2023-05-23T02:58:50;19.90;99.90
28552;DHT22;15752;49.560;8.708;2023-05-23T03:01:19;19.90;99.90
28552;DHT22;15752;49.560;8.708;2023-05-23T03:03:47;19.80;99.90
28552;DHT22;15752;49.560;8.708;2023-05-23T03:06:16;19.80;99.90
28552;DHT22;15752;49.560;8.708;2023-05-23T03:08:46;19.80;99.90
28552;DHT22;15752;49.560;8.708;2023-05-23T03:11:15;19.90;99.90
28552;DHT22;15752;49.560;8.708;2023-05-23T03:13:43;19.80;99.90
28552;DHT22;15752;49.560;8.708;2023-05-23T03:16:12;19.80;99.90
28552;DHT22;15752;49.560;8.708;2023-05-23T03:18:41;19.80;99.90
28552;DHT22;15752;49.560;8.708;2023-05-23T03:21:09;19.90;99.90
28552;DHT22;15752;49.560;8.708;2023-05-23T03:23:38;19.80;99.90
28552;DHT22;15752;49.560;8.708;2023-05-23T03:26:08;19.80;99.90
28552;DHT22;15752;49.560;8.708;2023-05-23T03:28:37;19.80;99.90
28552;DHT22;15752;49.560;8.708;2023-05-23T03:31:06;19.80;99.90
28552;DHT22;15752;49.560;8.708;2023-05-23T03:33:35;19.80;99.90
28552;DHT22;15752;49.560;8.708;2023-05-23T03:36:06;19.80;99.90
28552;DHT22;15752;49.560;8.708;2023-05-23T03:38:35;19.80;99.90
28552;DHT22;15752;49.560;8.708;2023-05-23T03:41:03;19.80;99.90
28552;DHT22;15752;49.560;8.708;2023-05-23T03:43:34;19.80;99.90
28552;DHT22;15752;49.560;8.708;2023-05-23T03:46:02;19.80;99.90
28552;DHT22;15752;49.560;8.708;2023-05-23T03:48:31;19.80;99.90
28552;DHT22;15752;49.560;8.708;2023-05-23T03:51:00;19.80;99.90
28552;DHT22;15752;49.560;8.708;2023-05-23T03:53:29;19.80;99.90
28552;DHT22;15752;49.560;8.708;2023-05-23T03:55:59;19.80;99.90
28552;DHT22;15752;49.560;8.708;2023-05-23T03:58:28;19.80;99.90
28552;DHT22;15752;49.560;8.708;2023-05-23T04:01:03;19.80;99.90
28552;DHT22;15752;49.560;8.708;2023-05-23T04:03:32;19.80;99.90
28552;DHT22;15752;49.560;8.708;2023-05-23T04:06:02;19.80;99.90
28552;DHT22;15752;49.560;8.708;2023-05-23T04:08:32;19.80;99.90
28552;DHT22;15752;49.560;8.708;2023-05-23T04:11:01;19.80;99.90
28552;DHT22;15752;49.560;8.708;2023-05-23T04:13:34;19.80;99.90
28552;DHT22;15752;49.560;8.708;2023-05-23T04:16:05;19.80;99.90
28552;DHT22;15752;49.560;8.708;2023-05-23T04:18:34;19.80;99.90
28552;DHT22;15752;49.560;8.708;2023-05-23T04:21:06;19.80;99.90
28552;DHT22;15752;49.560;8.708;2023-05-23T04:23:42;19.80;99.90
28552;DHT22;15752;49.560;8.708;2023-05-23T04:26:10;19.80;99.90
28552;DHT22;15752;49.560;8.708;2023-05-23T04:28:45;19.80;99.90
28552;DHT22;15752;49.560;8.708;2023-05-23T04:31:16;19.80;99.90
28552;DHT22;15752;49.560;8.708;2023-05-23T04:33:45;19.80;99.90
28552;DHT22;15752;49.560;8.708;2023-05-23T04:36:14;19.80;99.90
28552;DHT22;15752;49.560;8.708;2023-05-23T04:38:48;19.80;99.90
28552;DHT22;15752;49.560;8.708;2023-05-23T04:41:17;19.80;99.90
28552;DHT22;15752;49.560;8.708;2023-05-23T04:44:10;19.80;99.90
28552;DHT22;15752;49.560;8.708;2023-05-23T04:46:44;19.80;99.90
28552;DHT22;15752;49.560;8.708;2023-05-23T04:49:19;19.80;99.90
28552;DHT22;15752;49.560;8.708;2023-05-23T04:51:48;19.80;99.90
28552;DHT22;15752;49.560;8.708;2023-05-23T04:54:22;19.80;99.90
28552;DHT22;15752;49.560;8.708;2023-05-23T04:56:52;19.80;99.90
28552;DHT22;15752;49.560;8.708;2023-05-23T04:59:22;19.80;99.90
28552;DHT22;15752;49.560;8.708;2023-05-23T05:01:52;19.80;99.90
28552;DHT22;15752;49.560;8.708;2023-05-23T05:04:20;19.80;99.90
28552;DHT22;15752;49.560;8.708;2023-05-23T05:06:49;19.80;99.90
28552;DHT22;15752;49.560;8.708;2023-05-23T05:09:18;19.80;99.90
28552;DHT22;15752;49.560;8.708;2023-05-23T05:11:48;19.80;99.90
28552;DHT22;15752;49.560;8.708;2023-05-23T05:14:19;19.80;99.90
28552;DHT22;15752;49.560;8.708;2023-05-23T05:16:47;19.80;99.90
28552;DHT22;15752;49.560;8.708;2023-05-23T05:19:18;19.80;99.90
28552;DHT22;15752;49.560;8.708;2023-05-23T05:21:47;19.80;99.90
28552;DHT22;15752;49.560;8.708;2023-05-23T05:24:15;19.80;99.90
28552;DHT22;15752;49.560;8.708;2023-05-23T05:26:47;19.80;99.90
28552;DHT22;15752;49.560;8.708;2023-05-23T05:29:16;19.80;99.90
28552;DHT22;15752;49.560;8.708;2023-05-23T05:31:44;19.80;99.90
28552;DHT22;15752;49.560;8.708;2023-05-23T05:34:13;19.80;99.90
28552;DHT22;15752;49.560;8.708;2023-05-23T05:36:44;19.80;99.90
28552;DHT22;15752;49.560;8.708;2023-05-23T05:39:16;19.80;99.90
28552;DHT22;15752;49.560;8.708;2023-05-23T05:41:44;19.80;99.90
28552;DHT22;15752;49.560;8.708;2023-05-23T05:44:15;19.80;99.90
28552;DHT22;15752;49.560;8.708;2023-05-23T05:46:45;19.80;99.90
28552;DHT22;15752;49.560;8.708;2023-05-23T05:49:14;19.80;99.90
28552;DHT22;15752;49.560;8.708;2023-05-23T05:51:47;19.80;99.90
28552;DHT22;15752;49.560;8.708;2023-05-23T05:54:15;19.80;99.90
28552;DHT22;15752;49.560;8.708;2023-05-23T05:59:15;19.80;99.90
28552;DHT22;15752;49.560;8.708;2023-05-23T06:01:43;19.80;99.90
28552;DHT22;15752;49.560;8.708;2023-05-23T06:04:12;19.80;99.90
28552;DHT22;15752;49.560;8.708;2023-05-23T06:06:41;19.80;99.90
28552;DHT22;15752;49.560;8.708;2023-05-23T06:09:11;19.80;99.90
28552;DHT22;15752;49.560;8.708;2023-05-23T06:11:40;19.80;99.90
28552;DHT22;15752;49.560;8.708;2023-05-23T06:14:08;19.70;99.90
28552;DHT22;15752;49.560;8.708;2023-05-23T06:16:41;19.80;99.90
28552;DHT22;15752;49.560;8.708;2023-05-23T06:19:10;19.70;99.90
28552;DHT22;15752;49.560;8.708;2023-05-23T06:21:39;19.70;99.90
28552;DHT22;15752;49.560;8.708;2023-05-23T06:24:11;19.70;99.90
28552;DHT22;15752;49.560;8.708;2023-05-23T06:26:40;19.70;99.90
28552;DHT22;15752;49.560;8.708;2023-05-23T06:29:08;19.70;99.90
28552;DHT22;15752;49.560;8.708;2023-05-23T06:31:37;19.70;99.90
28552;DHT22;15752;49.560;8.708;2023-05-23T06:34:05;19.70;99.90
28552;DHT22;15752;49.560;8.708;2023-05-23T06:36:34;19.70;99.90
28552;DHT22;15752;49.560;8.708;2023-05-23T06:39:02;19.70;99.90
28552;DHT22;15752;49.560;8.708;2023-05-23T06:41:33;19.70;99.90
28552;DHT22;15752;49.560;8.708;2023-05-23T06:44:02;19.70;99.90
28552;DHT22;15752;49.560;8.708;2023-05-23T06:46:30;19.70;99.90
28552;DHT22;15752;49.560;8.708;2023-05-23T06:49:00;19.70;99.90
28552;DHT22;15752;49.560;8.708;2023-05-23T06:51:42;19.70;99.90
28552;DHT22;15752;49.560;8.708;2023-05-23T06:54:11;19.70;99.90
28552;DHT22;15752;49.560;8.708;2023-05-23T06:56:41;19.70;99.90
28552;DHT22;15752;49.560;8.708;2023-05-23T06:59:10;19.70;99.90
28552;DHT22;15752;49.560;8.708;2023-05-23T07:01:39;19.80;99.90
28552;DHT22;15752;49.560;8.708;2023-05-23T07:04:08;19.80;99.90
28552;DHT22;15752;49.560;8.708;2023-05-23T07:06:38;19.80;99.90
28552;DHT22;15752;49.560;8.708;2023-05-23T07:09:07;19.80;99.90
28552;DHT22;15752;49.560;8.708;2023-05-23T07:11:39;19.80;99.90
28552;DHT22;15752;49.560;8.708;2023-05-23T07:14:09;19.80;99.90
28552;DHT22;15752;49.560;8.708;2023-05-23T07:16:40;19.80;99.90
28552;DHT22;15752;49.560;8.708;2023-05-23T07:19:11;19.80;99.90
28552;DHT22;15752;49.560;8.708;2023-05-23T07:21:49;19.80;99.90
28552;DHT22;15752;49.560;8.708;2023-05-23T07:24:18;19.80;99.90
28552;DHT22;15752;49.560;8.708;2023-05-23T07:26:51;19.80;99.90
28552;DHT22;15752;49.560;8.708;2023-05-23T07:29:20;19.80;99.90
28552;DHT22;15752;49.560;8.708;2023-05-23T07:31:52;19.80;99.90
28552;DHT22;15752;49.560;8.708;2023-05-23T07:34:22;19.80;99.90
28552;DHT22;15752;49.560;8.708;2023-05-23T07:36:54;19.90;99.90
28552;DHT22;15752;49.560;8.708;2023-05-23T07:39:25;19.90;99.90
28552;DHT22;15752;49.560;8.708;2023-05-23T07:41:57;19.90;99.90
28552;DHT22;15752;49.560;8.708;2023-05-23T07:44:25;19.90;99.90
28552;DHT22;15752;49.560;8.708;2023-05-23T07:46:55;19.90;99.90
28552;DHT22;15752;49.560;8.708;2023-05-23T07:49:24;19.90;99.90
28552;DHT22;15752;49.560;8.708;2023-05-23T07:51:53;20.00;99.90
28552;DHT22;15752;49.560;8.708;2023-05-23T07:54:22;20.00;99.90
28552;DHT22;15752;49.560;8.708;2023-05-23T07:56:54;20.00;99.80
28552;DHT22;15752;49.560;8.708;2023-05-23T07:59:25;20.00;99.80
28552;DHT22;15752;49.560;8.708;2023-05-23T08:01:54;20.00;99.80
28552;DHT22;15752;49.560;8.708;2023-05-23T08:04:24;20.00;99.80
28552;DHT22;15752;49.560;8.708;2023-05-23T08:06:54;20.00;99.90
28552;DHT22;15752;49.560;8.708;2023-05-23T08:09:30;20.00;99.90
28552;DHT22;15752;49.560;8.708;2023-05-23T08:12:00;20.10;99.90
28552;DHT22;15752;49.560;8.708;2023-05-23T08:14:30;20.10;99.90
28552;DHT22;15752;49.560;8.708;2023-05-23T08:17:22;20.10;99.90
28552;DHT22;15752;49.560;8.708;2023-05-23T08:19:51;20.10;99.90
28552;DHT22;15752;49.560;8.708;2023-05-23T08:22:20;20.20;99.70
28552;DHT22;15752;49.560;8.708;2023-05-23T08:24:49;20.10;99.70
28552;DHT22;15752;49.560;8.708;2023-05-23T08:27:19;20.20;99.50
28552;DHT22;15752;49.560;8.708;2023-05-23T08:29:52;20.20;99.40
28552;DHT22;15752;49.560;8.708;2023-05-23T08:32:21;20.20;99.40
28552;DHT22;15752;49.560;8.708;2023-05-23T08:34:50;20.20;99.40
28552;DHT22;15752;49.560;8.708;2023-05-23T08:37:19;20.20;99.40
28552;DHT22;15752;49.560;8.708;2023-05-23T08:39:49;20.20;99.80
28552;DHT22;15752;49.560;8.708;2023-05-23T08:42:42;20.20;99.40
28552;DHT22;15752;49.560;8.708;2023-05-23T08:45:13;20.20;99.40
28552;DHT22;15752;49.560;8.708;2023-05-23T08:47:43;20.20;99.30
28552;DHT22;15752;49.560;8.708;2023-05-23T08:50:15;20.30;99.30
28552;DHT22;15752;49.560;8.708;2023-05-23T08:52:53;20.30;99.30
28552;DHT22;15752;49.560;8.708;2023-05-23T08:55:24;20.40;99.20
28552;DHT22;15752;49.560;8.708;2023-05-23T08:57:57;20.40;99.30
28552;DHT22;15752;49.560;8.708;2023-05-23T09:00:36;20.50;99.30
28552;DHT22;15752;49.560;8.708;2023-05-23T09:03:05;20.50;99.40
28552;DHT22;15752;49.560;8.708;2023-05-23T09:05:49;20.60;99.20
28552;DHT22;15752;49.560;8.708;2023-05-23T09:08:19;20.60;99.00
28552;DHT22;15752;49.560;8.708;2023-05-23T09:10:50;20.70;98.90
28552;DHT22;15752;49.560;8.708;2023-05-23T09:13:21;20.70;99.00
28552;DHT22;15752;49.560;8.708;2023-05-23T09:15:56;20.80;98.80
28552;DHT22;15752;49.560;8.708;2023-05-23T09:18:36;20.80;99.00
28552;DHT22;15752;49.560;8.708;2023-05-23T09:21:07;20.90;99.10
28552;DHT22;15752;49.560;8.708;2023-05-23T09:23:42;20.90;99.10
28552;DHT22;15752;49.560;8.708;2023-05-23T09:26:12;21.00;99.00
28552;DHT22;15752;49.560;8.708;2023-05-23T09:28:42;21.10;98.80
28552;DHT22;15752;49.560;8.708;2023-05-23T09:31:13;21.10;98.60
28552;DHT22;15752;49.560;8.708;2023-05-23T09:33:44;21.20;98.70
28552;DHT22;15752;49.560;8.708;2023-05-23T09:36:15;21.30;98.50
28552;DHT22;15752;49.560;8.708;2023-05-23T09:38:46;21.30;98.50
28552;DHT22;15752;49.560;8.708;2023-05-23T09:41:15;21.30;98.40
28552;DHT22;15752;49.560;8.708;2023-05-23T09:43:52;21.40;98.40
28552;DHT22;15752;49.560;8.708;2023-05-23T09:46:26;21.40;97.90
28552;DHT22;15752;49.560;8.708;2023-05-23T09:48:55;21.40;98.10
28552;DHT22;15752;49.560;8.708;2023-05-23T09:51:26;21.40;98.00
28552;DHT22;15752;49.560;8.708;2023-05-23T09:53:55;21.40;98.10
28552;DHT22;15752;49.560;8.708;2023-05-23T09:56:24;21.40;98.10
28552;DHT22;15752;49.560;8.708;2023-05-23T09:58:57;21.40;98.10
28552;DHT22;15752;49.560;8.708;2023-05-23T10:01:29;21.40;98.00
28552;DHT22;15752;49.560;8.708;2023-05-23T10:03:59;21.40;97.80
28552;DHT22;15752;49.560;8.708;2023-05-23T10:06:31;21.40;97.90
28552;DHT22;15752;49.560;8.708;2023-05-23T10:09:11;21.40;98.00
28552;DHT22;15752;49.560;8.708;2023-05-23T10:12:35;21.50;97.90
28552;DHT22;15752;49.560;8.708;2023-05-23T10:15:08;21.50;98.20
28552;DHT22;15752;49.560;8.708;2023-05-23T10:17:45;21.50;98.00
28552;DHT22;15752;49.560;8.708;2023-05-23T10:20:32;21.60;97.80
28552;DHT22;15752;49.560;8.708;2023-05-23T10:23:01;21.60;97.80
28552;DHT22;15752;49.560;8.708;2023-05-23T10:25:31;21.60;97.70
28552;DHT22;15752;49.560;8.708;2023-05-23T10:28:01;21.60;97.80
28552;DHT22;15752;49.560;8.708;2023-05-23T10:30:33;21.60;97.70
28552;DHT22;15752;49.560;8.708;2023-05-23T10:33:02;21.60;97.70
28552;DHT22;15752;49.560;8.708;2023-05-23T10:35:40;21.60;97.60
28552;DHT22;15752;49.560;8.708;2023-05-23T10:38:25;21.60;97.60
28552;DHT22;15752;49.560;8.708;2023-05-23T10:41:02;21.50;97.60
28552;DHT22;15752;49.560;8.708;2023-05-23T10:43:41;21.50;98.00
28552;DHT22;15752;49.560;8.708;2023-05-23T10:46:14;21.50;97.60
28552;DHT22;15752;49.560;8.708;2023-05-23T10:48:43;21.50;97.60
28552;DHT22;15752;49.560;8.708;2023-05-23T10:51:12;21.50;97.80
28552;DHT22;15752;49.560;8.708;2023-05-23T10:53:43;21.50;98.00
28552;DHT22;15752;49.560;8.708;2023-05-23T10:56:19;21.50;97.70
28552;DHT22;15752;49.560;8.708;2023-05-23T10:58:51;21.50;97.50
28552;DHT22;15752;49.560;8.708;2023-05-23T11:01:24;21.50;97.60
28552;DHT22;15752;49.560;8.708;2023-05-23T11:03:53;21.50;97.60
28552;DHT22;15752;49.560;8.708;2023-05-23T11:06:30;21.50;97.60
28552;DHT22;15752;49.560;8.708;2023-05-23T11:09:04;21.50;97.50
28552;DHT22;15752;49.560;8.708;2023-05-23T11:11:52;21.50;97.60
28552;DHT22;15752;49.560;8.708;2023-05-23T11:14:51;21.50;97.50
28552;DHT22;15752;49.560;8.708;2023-05-23T11:17:32;21.50;97.50
28552;DHT22;15752;49.560;8.708;2023-05-23T11:20:05;21.50;97.70
28552;DHT22;15752;49.560;8.708;2023-05-23T11:22:35;21.50;97.70
28552;DHT22;15752;49.560;8.708;2023-05-23T11:25:06;21.50;97.80
28552;DHT22;15752;49.560;8.708;2023-05-23T11:27:37;21.50;97.50
28552;DHT22;15752;49.560;8.708;2023-05-23T11:30:09;21.50;97.60
28552;DHT22;15752;49.560;8.708;2023-05-23T11:32:48;21.50;97.60
28552;DHT22;15752;49.560;8.708;2023-05-23T11:35:18;21.60;97.50
28552;DHT22;15752;49.560;8.708;2023-05-23T11:37:48;21.60;97.40
28552;DHT22;15752;49.560;8.708;2023-05-23T11:40:27;21.60;97.50
28552;DHT22;15752;49.560;8.708;2023-05-23T11:42:57;21.60;97.40
28552;DHT22;15752;49.560;8.708;2023-05-23T11:45:27;21.60;97.50
28552;DHT22;15752;49.560;8.708;2023-05-23T11:47:57;21.70;97.80
28552;DHT22;15752;49.560;8.708;2023-05-23T11:50:26;21.70;97.50
28552;DHT22;15752;49.560;8.708;2023-05-23T11:52:55;21.70;97.30
28552;DHT22;15752;49.560;8.708;2023-05-23T11:55:23;21.80;97.50
28552;DHT22;15752;49.560;8.708;2023-05-23T11:57:55;21.80;97.50
28552;DHT22;15752;49.560;8.708;2023-05-23T12:00:23;21.90;97.20
28552;DHT22;15752;49.560;8.708;2023-05-23T12:02:52;21.90;97.30
28552;DHT22;15752;49.560;8.708;2023-05-23T12:05:22;21.90;97.20
28552;DHT22;15752;49.560;8.708;2023-05-23T12:07:50;22.00;96.90
28552;DHT22;15752;49.560;8.708;2023-05-23T12:10:19;22.00;96.90
28552;DHT22;15752;49.560;8.708;2023-05-23T12:12:50;22.00;97.00
28552;DHT22;15752;49.560;8.708;2023-05-23T12:15:24;22.00;96.70
28552;DHT22;15752;49.560;8.708;2023-05-23T12:17:54;21.90;97.00
28552;DHT22;15752;49.560;8.708;2023-05-23T12:20:25;21.90;96.80
28552;DHT22;15752;49.560;8.708;2023-05-23T12:22:55;21.90;96.80
28552;DHT22;15752;49.560;8.708;2023-05-23T12:25:24;21.90;97.10
28552;DHT22;15752;49.560;8.708;2023-05-23T12:27:53;21.90;97.10
28552;DHT22;15752;49.560;8.708;2023-05-23T12:30:22;21.90;96.90
28552;DHT22;15752;49.560;8.708;2023-05-23T12:32:50;21.90;96.90
28552;DHT22;15752;49.560;8.708;2023-05-23T12:35:19;21.90;96.80
28552;DHT22;15752;49.560;8.708;2023-05-23T12:37:49;21.90;97.30
28552;DHT22;15752;49.560;8.708;2023-05-23T12:40:21;22.00;96.90
28552;DHT22;15752;49.560;8.708;2023-05-23T12:42:50;22.00;96.90
28552;DHT22;15752;49.560;8.708;2023-05-23T12:45:21;22.00;96.90
28552;DHT22;15752;49.560;8.708;2023-05-23T12:47:51;22.00;97.00
28552;DHT22;15752;49.560;8.708;2023-05-23T12:50:20;22.10;96.80
28552;DHT22;15752;49.560;8.708;2023-05-23T12:52:50;22.10;96.60
28552;DHT22;15752;49.560;8.708;2023-05-23T12:55:19;22.10;96.50
28552;DHT22;15752;49.560;8.708;2023-05-23T12:57:48;22.20;96.70
28552;DHT22;15752;49.560;8.708;2023-05-23T13:00:17;22.20;96.80
28552;DHT22;15752;49.560;8.708;2023-05-23T13:02:46;22.20;96.80
28552;DHT22;15752;49.560;8.708;2023-05-23T13:05:16;22.20;96.90
28552;DHT22;15752;49.560;8.708;2023-05-23T13:07:45;22.30;97.00
28552;DHT22;15752;49.560;8.708;2023-05-23T13:10:15;22.30;97.00
28552;DHT22;15752;49.560;8.708;2023-05-23T13:12:45;22.40;96.90
28552;DHT22;15752;49.560;8.708;2023-05-23T13:15:13;22.40;96.90
28552;DHT22;15752;49.560;8.708;2023-05-23T13:17:43;22.40;96.60
28552;DHT22;15752;49.560;8.708;2023-05-23T13:20:16;22.40;96.70
28552;DHT22;15752;49.560;8.708;2023-05-23T13:22:44;22.40;96.60
28552;DHT22;15752;49.560;8.708;2023-05-23T13:25:14;22.40;96.80
28552;DHT22;15752;49.560;8.708;2023-05-23T13:27:43;22.40;96.90
28552;DHT22;15752;49.560;8.708;2023-05-23T13:30:14;22.40;97.00
28552;DHT22;15752;49.560;8.708;2023-05-23T13:32:43;22.40;97.50
28552;DHT22;15752;49.560;8.708;2023-05-23T13:35:12;22.50;96.90
28552;DHT22;15752;49.560;8.708;2023-05-23T13:37:40;22.50;96.80
28552;DHT22;15752;49.560;8.708;2023-05-23T13:40:12;22.50;96.90
28552;DHT22;15752;49.560;8.708;2023-05-23T13:42:47;22.50;96.90
28552;DHT22;15752;49.560;8.708;2023-05-23T13:45:17;22.60;96.70
28552;DHT22;15752;49.560;8.708;2023-05-23T13:47:46;22.60;96.70
28552;DHT22;15752;49.560;8.708;2023-05-23T13:50:14;22.60;96.50
28552;DHT22;15752;49.560;8.708;2023-05-23T13:52:43;22.60;96.70
28552;DHT22;15752;49.560;8.708;2023-05-23T13:55:16;22.60;96.80
28552;DHT22;15752;49.560;8.708;2023-05-23T13:57:45;22.60;96.70
28552;DHT22;15752;49.560;8.708;2023-05-23T14:00:14;22.60;96.60
28552;DHT22;15752;49.560;8.708;2023-05-23T14:02:43;22.60;96.70
28552;DHT22;15752;49.560;8.708;2023-05-23T14:05:12;22.60;96.60
28552;DHT22;15752;49.560;8.708;2023-05-23T14:07:41;22.60;96.50
28552;DHT22;15752;49.560;8.708;2023-05-23T14:10:13;22.60;96.20
28552;DHT22;15752;49.560;8.708;2023-05-23T14:12:44;22.60;96.30
28552;DHT22;15752;49.560;8.708;2023-05-23T14:15:13;22.50;96.20
28552;DHT22;15752;49.560;8.708;2023-05-23T14:17:43;22.50;96.20
28552;DHT22;15752;49.560;8.708;2023-05-23T14:20:12;22.50;96.20
28552;DHT22;15752;49.560;8.708;2023-05-23T14:22:41;22.40;96.10
28552;DHT22;15752;49.560;8.708;2023-05-23T14:25:09;22.40;96.10
28552;DHT22;15752;49.560;8.708;2023-05-23T14:27:38;22.40;96.00
28552;DHT22;15752;49.560;8.708;2023-05-23T14:30:09;22.40;96.20
28552;DHT22;15752;49.560;8.708;2023-05-23T14:32:38;22.40;95.90
28552;DHT22;15752;49.560;8.708;2023-05-23T14:35:09;22.40;95.90
28552;DHT22;15752;49.560;8.708;2023-05-23T14:37:38;22.40;95.70
28552;DHT22;15752;49.560;8.708;2023-05-23T14:40:08;22.40;95.80
28552;DHT22;15752;49.560;8.708;2023-05-23T14:42:37;22.40;95.80
28552;DHT22;15752;49.560;8.708;2023-05-23T14:45:06;22.30;95.60
28552;DHT22;15752;49.560;8.708;2023-05-23T14:47:36;22.40;95.70
28552;DHT22;15752;49.560;8.708;2023-05-23T14:50:06;22.30;95.60
28552;DHT22;15752;49.560;8.708;2023-05-23T14:52:35;22.30;95.70
28552;DHT22;15752;49.560;8.708;2023-05-23T14:55:05;22.30;95.60
28552;DHT22;15752;49.560;8.708;2023-05-23T14:57:34;22.30;95.50
28552;DHT22;15752;49.560;8.708;2023-05-23T15:00:03;22.30;95.40
28552;DHT22;15752;49.560;8.708;2023-05-23T15:02:35;22.20;95.50
28552;DHT22;15752;49.560;8.708;2023-05-23T15:05:05;22.30;95.30
28552;DHT22;15752;49.560;8.708;2023-05-23T15:07:34;22.20;95.70
28552;DHT22;15752;49.560;8.708;2023-05-23T15:10:05;22.20;95.50
28552;DHT22;15752;49.560;8.708;2023-05-23T15:12:35;22.20;95.70
28552;DHT22;15752;49.560;8.708;2023-05-23T15:15:04;22.20;95.60
28552;DHT22;15752;49.560;8.708;2023-05-23T15:17:35;22.20;95.50
28552;DHT22;15752;49.560;8.708;2023-05-23T15:20:05;22.20;95.50
28552;DHT22;15752;49.560;8.708;2023-05-23T15:22:36;22.20;95.60
28552;DHT22;15752;49.560;8.708;2023-05-23T15:25:06;22.10;95.90
28552;DHT22;15752;49.560;8.708;2023-05-23T15:27:36;22.10;95.60
28552;DHT22;15752;49.560;8.708;2023-05-23T15:30:06;22.10;95.60
28552;DHT22;15752;49.560;8.708;2023-05-23T15:32:36;22.10;95.60
28552;DHT22;15752;49.560;8.708;2023-05-23T15:35:06;22.10;95.50
28552;DHT22;15752;49.560;8.708;2023-05-23T15:37:34;22.10;95.70
28552;DHT22;15752;49.560;8.708;2023-05-23T15:40:04;22.10;95.40
28552;DHT22;15752;49.560;8.708;2023-05-23T15:42:33;22.10;95.40
28552;DHT22;15752;49.560;8.708;2023-05-23T15:45:02;22.10;95.40
28552;DHT22;15752;49.560;8.708;2023-05-23T15:47:31;22.00;95.40
28552;DHT22;15752;49.560;8.708;2023-05-23T15:50:01;22.00;95.20
28552;DHT22;15752;49.560;8.708;2023-05-23T15:52:30;22.00;95.30
28552;DHT22;15752;49.560;8.708;2023-05-23T15:54:58;22.00;95.40
28552;DHT22;15752;49.560;8.708;2023-05-23T15:57:31;22.00;95.50
28552;DHT22;15752;49.560;8.708;2023-05-23T16:00:01;21.90;95.30